sensor_id;sensor_type;location;lat;lon;timestamp;P1;durP1;ratioP1;P2;durP2;ratioP2
8642;SDS011;4359;49.358;11.256;2023-07-28T00:02:05;6.68;;;5.00;;
8642;SDS011;4359;49.358;11.256;2023-07-28T00:04:31;8.95;;;5.15;;
8642;SDS011;4359;49.358;11.256;2023-07-28T00:06:59;8.63;;;5.18;;
8642;SDS011;4359;49.358;11.256;2023-07-28T00:09:25;10.77;;;6.47;;
8642;SDS011;4359;49.358;11.256;2023-07-28T00:11:51;6.88;;;5.22;;
8642;SDS011;4359;49.358;11.256;2023-07-28T00:14:17;7.30;;;5.50;;
8642;SDS011;4359;49.358;11.256;2023-07-28T00:16:43;8.48;;;5.57;;
8642;SDS011;4359;49.358;11.256;2023-07-28T00:19:08;6.97;;;5.25;;
8642;SDS011;4359;49.358;11.256;2023-07-28T00:21:34;7.65;;;4.82;;
8642;SDS011;4359;49.358;11.256;2023-07-28T00:24:00;13.30;;;6.03;;
8642;SDS011;4359;49.358;11.256;2023-07-28T00:26:25;9.18;;;5.65;;
8642;SDS011;4359;49.358;11.256;2023-07-28T00:28:51;6.93;;;4.95;;
8642;SDS011;4359;49.358;11.256;2023-07-28T00:31:17;9.98;;;6.38;;
8642;SDS011;4359;49.358;11.256;2023-07-28T00:33:42;8.73;;;5.88;;
8642;SDS011;4359;49.358;11.256;2023-07-28T00:36:08;7.68;;;5.40;;
8642;SDS011;4359;49.358;11.256;2023-07-28T00:38:34;9.13;;;5.63;;
8642;SDS011;4359;49.358;11.256;2023-07-28T00:40:59;9.98;;;5.88;;
8642;SDS011;4359;49.358;11.256;2023-07-28T00:43:25;9.23;;;6.18;;
8642;SDS011;4359;49.358;11.256;2023-07-28T00:45:50;7.78;;;5.82;;
8642;SDS011;4359;49.358;11.256;2023-07-28T00:48:17;10.48;;;5.95;;
8642;SDS011;4359;49.358;11.256;2023-07-28T00:50:46;10.35;;;5.88;;
8642;SDS011;4359;49.358;11.256;2023-07-28T00:53:13;9.68;;;6.28;;
8642;SDS011;4359;49.358;11.256;2023-07-28T00:55:39;8.48;;;5.82;;
8642;SDS011;4359;49.358;11.256;2023-07-28T00:58:06;12.98;;;6.80;;
8642;SDS011;4359;49.358;11.256;2023-07-28T01:00:31;10.50;;;6.05;;
8642;SDS011;4359;49.358;11.256;2023-07-28T01:02:57;8.70;;;6.22;;
8642;SDS011;4359;49.358;11.256;2023-07-28T01:05:33;9.43;;;6.05;;
8642;SDS011;4359;49.358;11.256;2023-07-28T01:08:33;7.35;;;6.05;;
8642;SDS011;4359;49.358;11.256;2023-07-28T01:10:59;9.82;;;6.18;;
8642;SDS011;4359;49.358;11.256;2023-07-28T01:13:25;11.02;;;6.60;;
8642;SDS011;4359;49.358;11.256;2023-07-28T01:15:51;10.23;;;6.13;;
8642;SDS011;4359;49.358;11.256;2023-07-28T01:18:16;7.18;;;5.68;;
8642;SDS011;4359;49.358;11.256;2023-07-28T01:20:42;7.38;;;5.82;;
8642;SDS011;4359;49.358;11.256;2023-07-28T01:23:19;7.45;;;5.40;;
8642;SDS011;4359;49.358;11.256;2023-07-28T01:28:35;7.13;;;5.13;;
8642;SDS011;4359;49.358;11.256;2023-07-28T01:31:03;10.40;;;6.03;;
8642;SDS011;4359;49.358;11.256;2023-07-28T01:33:31;7.63;;;5.28;;
8642;SDS011;4359;49.358;11.256;2023-07-28T01:35:57;8.57;;;4.97;;
8642;SDS011;4359;49.358;11.256;2023-07-28T01:38:26;7.80;;;4.93;;
8642;SDS011;4359;49.358;11.256;2023-07-28T01:40:53;10.27;;;5.97;;
8642;SDS011;4359;49.358;11.256;2023-07-28T01:43:19;6.60;;;5.22;;
8642;SDS011;4359;49.358;11.256;2023-07-28T01:45:44;9.13;;;5.40;;
8642;SDS011;4359;49.358;11.256;2023-07-28T01:48:10;7.63;;;5.32;;
8642;SDS011;4359;49.358;11.256;2023-07-28T01:50:36;7.38;;;5.20;;
8642;SDS011;4359;49.358;11.256;2023-07-28T01:53:04;8.20;;;5.20;;
8642;SDS011;4359;49.358;11.256;2023-07-28T01:55:30;7.20;;;5.63;;
8642;SDS011;4359;49.358;11.256;2023-07-28T01:57:59;9.45;;;6.22;;
8642;SDS011;4359;49.358;11.256;2023-07-28T02:00:26;6.47;;;5.05;;
8642;SDS011;4359;49.358;11.256;2023-07-28T02:02:52;6.85;;;5.22;;
8642;SDS011;4359;49.358;11.256;2023-07-28T02:05:19;8.30;;;5.65;;
8642;SDS011;4359;49.358;11.256;2023-07-28T02:07:45;7.55;;;5.57;;
8642;SDS011;4359;49.358;11.256;2023-07-28T02:10:11;11.68;;;6.20;;
8642;SDS011;4359;49.358;11.256;2023-07-28T02:12:37;8.27;;;6.05;;
8642;SDS011;4359;49.358;11.256;2023-07-28T02:15:04;7.97;;;5.20;;
8642;SDS011;4359;49.358;11.256;2023-07-28T02:17:31;8.10;;;5.50;;
8642;SDS011;4359;49.358;11.256;2023-07-28T02:19:56;6.78;;;4.80;;
8642;SDS011;4359;49.358;11.256;2023-07-28T02:22:22;9.13;;;6.15;;
8642;SDS011;4359;49.358;11.256;2023-07-28T02:24:48;9.40;;;5.82;;
8642;SDS011;4359;49.358;11.256;2023-07-28T02:27:13;10.27;;;5.57;;
8642;SDS011;4359;49.358;11.256;2023-07-28T02:29:39;7.78;;;5.28;;
8642;SDS011;4359;49.358;11.256;2023-07-28T02:32:05;7.18;;;5.20;;
8642;SDS011;4359;49.358;11.256;2023-07-28T02:34:31;8.43;;;5.18;;
8642;SDS011;4359;49.358;11.256;2023-07-28T02:36:57;8.57;;;5.93;;
8642;SDS011;4359;49.358;11.256;2023-07-28T02:39:22;9.20;;;5.50;;
8642;SDS011;4359;49.358;11.256;2023-07-28T02:41:48;10.07;;;6.38;;
8642;SDS011;4359;49.358;11.256;2023-07-28T02:44:14;8.85;;;6.85;;
8642;SDS011;4359;49.358;11.256;2023-07-28T02:46:39;10.23;;;6.50;;
8642;SDS011;4359;49.358;11.256;2023-07-28T02:49:05;8.18;;;5.55;;
8642;SDS011;4359;49.358;11.256;2023-07-28T02:51:33;7.40;;;5.65;;
8642;SDS011;4359;49.358;11.256;2023-07-28T02:53:59;14.30;;;7.05;;
8642;SDS011;4359;49.358;11.256;2023-07-28T02:56:25;11.10;;;6.70;;
8642;SDS011;4359;49.358;11.256;2023-07-28T02:58:51;12.90;;;7.10;;
8642;SDS011;4359;49.358;11.256;2023-07-28T03:01:17;12.45;;;7.15;;
8642;SDS011;4359;49.358;11.256;2023-07-28T03:03:43;9.75;;;6.63;;
8642;SDS011;4359;49.358;11.256;2023-07-28T03:06:09;8.73;;;5.45;;
8642;SDS011;4359;49.358;11.256;2023-07-28T03:08:34;11.45;;;6.97;;
8642;SDS011;4359;49.358;11.256;2023-07-28T03:11:00;8.65;;;5.82;;
8642;SDS011;4359;49.358;11.256;2023-07-28T03:13:28;7.88;;;5.70;;
8642;SDS011;4359;49.358;11.256;2023-07-28T03:15:54;10.90;;;6.50;;
8642;SDS011;4359;49.358;11.256;2023-07-28T03:18:20;9.75;;;6.47;;
8642;SDS011;4359;49.358;11.256;2023-07-28T03:20:46;9.10;;;6.65;;
8642;SDS011;4359;49.358;11.256;2023-07-28T03:23:12;9.63;;;6.00;;
8642;SDS011;4359;49.358;11.256;2023-07-28T03:25:38;7.88;;;5.70;;
8642;SDS011;4359;49.358;11.256;2023-07-28T03:28:04;10.80;;;5.95;;
8642;SDS011;4359;49.358;11.256;2023-07-28T03:30:29;12.07;;;7.50;;
8642;SDS011;4359;49.358;11.256;2023-07-28T03:32:55;9.32;;;6.57;;
8642;SDS011;4359;49.358;11.256;2023-07-28T03:35:21;11.20;;;6.53;;
8642;SDS011;4359;49.358;11.256;2023-07-28T03:37:47;7.45;;;5.68;;
8642;SDS011;4359;49.358;11.256;2023-07-28T03:40:12;16.88;;;7.05;;
8642;SDS011;4359;49.358;11.256;2023-07-28T03:42:38;11.50;;;6.80;;
8642;SDS011;4359;49.358;11.256;2023-07-28T03:45:04;9.35;;;7.38;;
8642;SDS011;4359;49.358;11.256;2023-07-28T03:47:30;10.77;;;7.07;;
8642;SDS011;4359;49.358;11.256;2023-07-28T03:49:55;13.55;;;7.63;;
8642;SDS011;4359;49.358;11.256;2023-07-28T03:52:21;11.88;;;7.55;;
8642;SDS011;4359;49.358;11.256;2023-07-28T03:54:47;10.43;;;6.57;;
8642;SDS011;4359;49.358;11.256;2023-07-28T03:57:12;10.88;;;7.43;;
8642;SDS011;4359;49.358;11.256;2023-07-28T03:59:38;10.40;;;7.30;;
8642;SDS011;4359;49.358;11.256;2023-07-28T04:02:03;10.07;;;6.90;;
8642;SDS011;4359;49.358;11.256;2023-07-28T04:04:29;10.88;;;7.47;;
8642;SDS011;4359;49.358;11.256;2023-07-28T04:06:55;11.32;;;6.93;;
8642;SDS011;4359;49.358;11.256;2023-07-28T04:09:21;12.05;;;7.70;;
8642;SDS011;4359;49.358;11.256;2023-07-28T04:11:46;8.85;;;6.03;;
8642;SDS011;4359;49.358;11.256;2023-07-28T04:14:12;15.40;;;7.97;;
8642;SDS011;4359;49.358;11.256;2023-07-28T04:16:39;9.95;;;7.30;;
8642;SDS011;4359;49.358;11.256;2023-07-28T04:19:05;12.30;;;6.75;;
8642;SDS011;4359;49.358;11.256;2023-07-28T04:21:30;9.85;;;6.45;;
8642;SDS011;4359;49.358;11.256;2023-07-28T04:23:59;14.38;;;7.82;;
8642;SDS011;4359;49.358;11.256;2023-07-28T04:26:25;12.50;;;8.10;;
8642;SDS011;4359;49.358;11.256;2023-07-28T04:28:50;9.88;;;7.10;;
8642;SDS011;4359;49.358;11.256;2023-07-28T04:31:16;13.25;;;8.80;;
8642;SDS011;4359;49.358;11.256;2023-07-28T04:33:42;8.88;;;6.93;;
8642;SDS011;4359;49.358;11.256;2023-07-28T04:36:08;10.23;;;7.22;;
8642;SDS011;4359;49.358;11.256;2023-07-28T04:38:34;12.40;;;7.40;;
8642;SDS011;4359;49.358;11.256;2023-07-28T04:41:00;10.05;;;7.45;;
8642;SDS011;4359;49.358;11.256;2023-07-28T04:43:25;10.00;;;7.05;;
8642;SDS011;4359;49.358;11.256;2023-07-28T04:45:51;9.90;;;7.00;;
8642;SDS011;4359;49.358;11.256;2023-07-28T04:48:17;10.85;;;7.85;;
8642;SDS011;4359;49.358;11.256;2023-07-28T04:50:43;10.13;;;6.90;;
8642;SDS011;4359;49.358;11.256;2023-07-28T04:53:09;11.30;;;6.70;;
8642;SDS011;4359;49.358;11.256;2023-07-28T04:55:35;13.93;;;8.57;;
8642;SDS011;4359;49.358;11.256;2023-07-28T04:58:01;9.48;;;7.38;;
8642;SDS011;4359;49.358;11.256;2023-07-28T05:00:26;14.82;;;9.48;;
8642;SDS011;4359;49.358;11.256;2023-07-28T05:02:52;11.63;;;7.05;;
8642;SDS011;4359;49.358;11.256;2023-07-28T05:05:18;9.77;;;6.68;;
8642;SDS011;4359;49.358;11.256;2023-07-28T05:07:43;10.88;;;7.95;;
8642;SDS011;4359;49.358;11.256;2023-07-28T05:10:09;9.70;;;7.32;;
8642;SDS011;4359;49.358;11.256;2023-07-28T05:12:35;10.68;;;6.88;;
8642;SDS011;4359;49.358;11.256;2023-07-28T05:15:00;8.73;;;6.97;;
8642;SDS011;4359;49.358;11.256;2023-07-28T05:17:26;8.77;;;5.78;;
8642;SDS011;4359;49.358;11.256;2023-07-28T05:20:19;10.68;;;7.20;;
8642;SDS011;4359;49.358;11.256;2023-07-28T05:22:44;11.30;;;6.50;;
8642;SDS011;4359;49.358;11.256;2023-07-28T05:25:10;9.55;;;6.18;;
8642;SDS011;4359;49.358;11.256;2023-07-28T05:27:36;10.68;;;6.70;;
8642;SDS011;4359;49.358;11.256;2023-07-28T05:30:01;9.32;;;6.95;;
8642;SDS011;4359;49.358;11.256;2023-07-28T05:32:27;7.63;;;5.93;;
8642;SDS011;4359;49.358;11.256;2023-07-28T05:34:52;9.77;;;6.72;;
8642;SDS011;4359;49.358;11.256;2023-07-28T05:37:18;9.82;;;6.22;;
8642;SDS011;4359;49.358;11.256;2023-07-28T05:39:44;8.10;;;5.95;;
8642;SDS011;4359;49.358;11.256;2023-07-28T05:42:10;7.95;;;6.07;;
8642;SDS011;4359;49.358;11.256;2023-07-28T05:44:35;7.63;;;6.13;;
8642;SDS011;4359;49.358;11.256;2023-07-28T05:47:01;9.15;;;6.13;;
8642;SDS011;4359;49.358;11.256;2023-07-28T05:49:27;10.98;;;6.65;;
8642;SDS011;4359;49.358;11.256;2023-07-28T05:51:52;9.60;;;6.03;;
8642;SDS011;4359;49.358;11.256;2023-07-28T05:54:18;8.10;;;6.18;;
8642;SDS011;4359;49.358;11.256;2023-07-28T05:56:44;6.97;;;5.78;;
8642;SDS011;4359;49.358;11.256;2023-07-28T05:59:09;11.45;;;7.32;;
8642;SDS011;4359;49.358;11.256;2023-07-28T06:01:35;11.85;;;6.65;;
8642;SDS011;4359;49.358;11.256;2023-07-28T06:04:01;9.88;;;6.60;;
8642;SDS011;4359;49.358;11.256;2023-07-28T06:06:26;9.60;;;5.82;;
8642;SDS011;4359;49.358;11.256;2023-07-28T06:08:52;9.45;;;6.60;;
8642;SDS011;4359;49.358;11.256;2023-07-28T06:11:18;8.98;;;6.55;;
8642;SDS011;4359;49.358;11.256;2023-07-28T06:13:45;10.02;;;6.50;;
8642;SDS011;4359;49.358;11.256;2023-07-28T06:16:11;10.48;;;5.90;;
8642;SDS011;4359;49.358;11.256;2023-07-28T06:18:37;11.05;;;6.28;;
8642;SDS011;4359;49.358;11.256;2023-07-28T06:21:03;8.52;;;6.22;;
8642;SDS011;4359;49.358;11.256;2023-07-28T06:23:29;7.25;;;5.20;;
8642;SDS011;4359;49.358;11.256;2023-07-28T06:25:55;8.57;;;5.32;;
8642;SDS011;4359;49.358;11.256;2023-07-28T06:28:20;9.18;;;5.97;;
8642;SDS011;4359;49.358;11.256;2023-07-28T06:30:46;7.15;;;5.22;;
8642;SDS011;4359;49.358;11.256;2023-07-28T06:33:12;7.72;;;5.70;;
8642;SDS011;4359;49.358;11.256;2023-07-28T06:35:37;7.43;;;5.13;;
8642;SDS011;4359;49.358;11.256;2023-07-28T06:38:04;9.38;;;5.70;;
8642;SDS011;4359;49.358;11.256;2023-07-28T06:40:29;7.10;;;5.10;;
8642;SDS011;4359;49.358;11.256;2023-07-28T06:42:55;7.82;;;5.10;;
8642;SDS011;4359;49.358;11.256;2023-07-28T06:45:21;9.70;;;5.40;;
8642;SDS011;4359;49.358;11.256;2023-07-28T06:47:47;7.85;;;4.80;;
8642;SDS011;4359;49.358;11.256;2023-07-28T06:50:13;7.43;;;4.70;;
8642;SDS011;4359;49.358;11.256;2023-07-28T06:52:39;8.27;;;4.80;;
8642;SDS011;4359;49.358;11.256;2023-07-28T06:55:05;7.70;;;5.05;;
8642;SDS011;4359;49.358;11.256;2023-07-28T06:57:30;7.03;;;4.45;;
8642;SDS011;4359;49.358;11.256;2023-07-28T06:59:56;6.80;;;5.05;;
8642;SDS011;4359;49.358;11.256;2023-07-28T07:02:22;6.63;;;4.90;;
8642;SDS011;4359;49.358;11.256;2023-07-28T07:04:48;7.47;;;5.30;;
8642;SDS011;4359;49.358;11.256;2023-07-28T07:07:13;9.82;;;5.22;;
8642;SDS011;4359;49.358;11.256;2023-07-28T07:09:39;8.93;;;5.10;;
8642;SDS011;4359;49.358;11.256;2023-07-28T07:12:06;12.00;;;5.63;;
8642;SDS011;4359;49.358;11.256;2023-07-28T07:14:35;8.20;;;5.50;;
8642;SDS011;4359;49.358;11.256;2023-07-28T07:17:01;10.85;;;5.60;;
8642;SDS011;4359;49.358;11.256;2023-07-28T07:19:27;8.35;;;5.57;;
8642;SDS011;4359;49.358;11.256;2023-07-28T07:21:54;8.40;;;5.43;;
8642;SDS011;4359;49.358;11.256;2023-07-28T07:24:20;11.63;;;5.55;;
8642;SDS011;4359;49.358;11.256;2023-07-28T07:26:46;8.80;;;5.60;;
8642;SDS011;4359;49.358;11.256;2023-07-28T07:29:12;6.03;;;5.03;;
8642;SDS011;4359;49.358;11.256;2023-07-28T07:31:38;6.43;;;4.53;;
8642;SDS011;4359;49.358;11.256;2023-07-28T07:34:04;9.43;;;5.68;;
8642;SDS011;4359;49.358;11.256;2023-07-28T07:36:29;7.28;;;5.15;;
8642;SDS011;4359;49.358;11.256;2023-07-28T07:38:56;9.45;;;5.53;;
8642;SDS011;4359;49.358;11.256;2023-07-28T07:41:22;11.32;;;5.85;;
8642;SDS011;4359;49.358;11.256;2023-07-28T07:43:49;9.45;;;5.93;;
8642;SDS011;4359;49.358;11.256;2023-07-28T07:46:17;7.68;;;5.05;;
8642;SDS011;4359;49.358;11.256;2023-07-28T07:48:44;10.55;;;5.43;;
8642;SDS011;4359;49.358;11.256;2023-07-28T07:51:10;7.75;;;5.13;;
8642;SDS011;4359;49.358;11.256;2023-07-28T07:53:36;9.02;;;5.60;;
8642;SDS011;4359;49.358;11.256;2023-07-28T07:56:02;13.27;;;5.60;;
8642;SDS011;4359;49.358;11.256;2023-07-28T07:58:29;9.20;;;5.10;;
8642;SDS011;4359;49.358;11.256;2023-07-28T08:00:55;7.25;;;5.18;;
8642;SDS011;4359;49.358;11.256;2023-07-28T08:03:21;6.90;;;5.40;;
8642;SDS011;4359;49.358;11.256;2023-07-28T08:05:47;8.60;;;5.65;;
8642;SDS011;4359;49.358;11.256;2023-07-28T08:08:12;7.78;;;5.15;;
8642;SDS011;4359;49.358;11.256;2023-07-28T08:10:42;6.80;;;4.75;;
8642;SDS011;4359;49.358;11.256;2023-07-28T08:13:11;9.25;;;5.43;;
8642;SDS011;4359;49.358;11.256;2023-07-28T08:15:36;5.88;;;4.32;;
8642;SDS011;4359;49.358;11.256;2023-07-28T08:18:02;6.97;;;4.55;;
8642;SDS011;4359;49.358;11.256;2023-07-28T08:20:28;5.95;;;4.32;;
8642;SDS011;4359;49.358;11.256;2023-07-28T08:22:53;6.63;;;4.18;;
8642;SDS011;4359;49.358;11.256;2023-07-28T08:25:19;6.63;;;4.43;;
8642;SDS011;4359;49.358;11.256;2023-07-28T08:27:45;7.20;;;4.65;;
8642;SDS011;4359;49.358;11.256;2023-07-28T08:30:10;8.23;;;4.88;;
8642;SDS011;4359;49.358;11.256;2023-07-28T08:32:36;9.07;;;4.80;;
8642;SDS011;4359;49.358;11.256;2023-07-28T08:35:02;6.38;;;4.75;;
8642;SDS011;4359;49.358;11.256;2023-07-28T08:37:28;9.38;;;5.93;;
8642;SDS011;4359;49.358;11.256;2023-07-28T08:39:54;9.15;;;5.40;;
8642;SDS011;4359;49.358;11.256;2023-07-28T08:42:20;9.43;;;5.53;;
8642;SDS011;4359;49.358;11.256;2023-07-28T08:44:47;9.45;;;5.60;;
8642;SDS011;4359;49.358;11.256;2023-07-28T08:47:13;6.82;;;5.57;;
8642;SDS011;4359;49.358;11.256;2023-07-28T08:49:39;6.85;;;5.28;;
8642;SDS011;4359;49.358;11.256;2023-07-28T08:52:05;6.00;;;4.90;;
8642;SDS011;4359;49.358;11.256;2023-07-28T08:54:31;11.95;;;4.97;;
8642;SDS011;4359;49.358;11.256;2023-07-28T08:56:57;5.97;;;4.60;;
8642;SDS011;4359;49.358;11.256;2023-07-28T08:59:24;7.13;;;4.90;;
8642;SDS011;4359;49.358;11.256;2023-07-28T09:01:51;7.22;;;4.70;;
8642;SDS011;4359;49.358;11.256;2023-07-28T09:04:17;6.65;;;4.38;;
8642;SDS011;4359;49.358;11.256;2023-07-28T09:06:46;8.13;;;4.32;;
8642;SDS011;4359;49.358;11.256;2023-07-28T09:09:16;5.85;;;4.00;;
8642;SDS011;4359;49.358;11.256;2023-07-28T09:11:46;4.47;;;3.78;;
8642;SDS011;4359;49.358;11.256;2023-07-28T09:14:13;4.80;;;3.83;;
8642;SDS011;4359;49.358;11.256;2023-07-28T09:16:41;4.75;;;3.63;;
8642;SDS011;4359;49.358;11.256;2023-07-28T09:19:13;5.25;;;3.47;;
8642;SDS011;4359;49.358;11.256;2023-07-28T09:21:39;6.90;;;3.10;;
8642;SDS011;4359;49.358;11.256;2023-07-28T09:24:09;3.42;;;2.67;;
8642;SDS011;4359;49.358;11.256;2023-07-28T09:26:42;6.75;;;2.70;;
8642;SDS011;4359;49.358;11.256;2023-07-28T09:31:48;5.68;;;2.80;;
8642;SDS011;4359;49.358;11.256;2023-07-28T09:34:27;3.63;;;2.40;;
8642;SDS011;4359;49.358;11.256;2023-07-28T09:36:54;3.55;;;2.60;;
8642;SDS011;4359;49.358;11.256;2023-07-28T09:39:23;3.00;;;2.30;;
8642;SDS011;4359;49.358;11.256;2023-07-28T09:41:50;4.15;;;2.40;;
8642;SDS011;4359;49.358;11.256;2023-07-28T09:44:16;3.13;;;2.47;;
8642;SDS011;4359;49.358;11.256;2023-07-28T09:46:52;3.28;;;2.20;;
8642;SDS011;4359;49.358;11.256;2023-07-28T09:49:27;3.35;;;2.47;;
8642;SDS011;4359;49.358;11.256;2023-07-28T09:51:57;3.97;;;2.50;;
8642;SDS011;4359;49.358;11.256;2023-07-28T09:54:29;4.40;;;2.72;;
8642;SDS011;4359;49.358;11.256;2023-07-28T09:56:56;6.38;;;2.63;;
8642;SDS011;4359;49.358;11.256;2023-07-28T09:59:28;5.75;;;2.53;;
8642;SDS011;4359;49.358;11.256;2023-07-28T10:02:00;5.80;;;2.72;;
8642;SDS011;4359;49.358;11.256;2023-07-28T10:04:27;5.45;;;2.85;;
8642;SDS011;4359;49.358;11.256;2023-07-28T10:06:54;3.88;;;3.13;;
8642;SDS011;4359;49.358;11.256;2023-07-28T10:09:24;4.55;;;2.72;;
8642;SDS011;4359;49.358;11.256;2023-07-28T10:11:51;4.43;;;2.70;;
8642;SDS011;4359;49.358;11.256;2023-07-28T10:14:27;4.55;;;2.70;;
8642;SDS011;4359;49.358;11.256;2023-07-28T10:16:59;4.45;;;3.05;;
8642;SDS011;4359;49.358;11.256;2023-07-28T10:19:29;3.15;;;2.78;;
8642;SDS011;4359;49.358;11.256;2023-07-28T10:22:02;3.05;;;2.38;;
8642;SDS011;4359;49.358;11.256;2023-07-28T10:30:04;4.43;;;2.20;;
8642;SDS011;4359;49.358;11.256;2023-07-28T10:32:47;2.88;;;1.90;;
8642;SDS011;4359;49.358;11.256;2023-07-28T10:37:47;3.10;;;1.95;;
8642;SDS011;4359;49.358;11.256;2023-07-28T10:40:29;3.20;;;2.20;;
8642;SDS011;4359;49.358;11.256;2023-07-28T10:42:56;2.70;;;1.88;;
8642;SDS011;4359;49.358;11.256;2023-07-28T10:45:24;3.00;;;1.90;;
8642;SDS011;4359;49.358;11.256;2023-07-28T10:47:52;2.75;;;1.63;;
8642;SDS011;4359;49.358;11.256;2023-07-28T10:50:20;3.47;;;1.45;;
8642;SDS011;4359;49.358;11.256;2023-07-28T10:52:47;3.35;;;1.25;;
8642;SDS011;4359;49.358;11.256;2023-07-28T10:55:16;4.00;;;1.27;;
8642;SDS011;4359;49.358;11.256;2023-07-28T10:57:46;3.00;;;1.13;;
8642;SDS011;4359;49.358;11.256;2023-07-28T11:00:14;3.92;;;1.10;;
8642;SDS011;4359;49.358;11.256;2023-07-28T11:02:46;2.22;;;1.10;;
8642;SDS011;4359;49.358;11.256;2023-07-28T11:05:20;2.03;;;0.90;;
8642;SDS011;4359;49.358;11.256;2023-07-28T11:07:51;3.65;;;1.20;;
8642;SDS011;4359;49.358;11.256;2023-07-28T11:10:21;2.85;;;1.27;;
8642;SDS011;4359;49.358;11.256;2023-07-28T11:12:48;5.82;;;1.30;;
8642;SDS011;4359;49.358;11.256;2023-07-28T11:15:16;2.78;;;1.00;;
8642;SDS011;4359;49.358;11.256;2023-07-28T11:17:46;2.97;;;1.27;;
8642;SDS011;4359;49.358;11.256;2023-07-28T11:22:46;1.80;;;0.93;;
8642;SDS011;4359;49.358;11.256;2023-07-28T11:25:17;2.42;;;1.05;;
8642;SDS011;4359;49.358;11.256;2023-07-28T11:27:42;1.80;;;0.90;;
8642;SDS011;4359;49.358;11.256;2023-07-28T11:30:11;1.75;;;1.00;;
8642;SDS011;4359;49.358;11.256;2023-07-28T11:32:38;2.17;;;1.00;;
8642;SDS011;4359;49.358;11.256;2023-07-28T11:37:34;3.58;;;0.88;;
8642;SDS011;4359;49.358;11.256;2023-07-28T11:40:01;3.42;;;0.93;;
8642;SDS011;4359;49.358;11.256;2023-07-28T11:42:31;2.75;;;1.10;;
8642;SDS011;4359;49.358;11.256;2023-07-28T11:45:02;2.08;;;0.80;;
8642;SDS011;4359;49.358;11.256;2023-07-28T11:47:29;1.80;;;0.82;;
8642;SDS011;4359;49.358;11.256;2023-07-28T11:49:55;2.03;;;1.00;;
8642;SDS011;4359;49.358;11.256;2023-07-28T11:52:23;1.10;;;0.60;;
8642;SDS011;4359;49.358;11.256;2023-07-28T11:54:59;1.48;;;0.70;;
8642;SDS011;4359;49.358;11.256;2023-07-28T11:57:29;1.10;;;0.50;;
8642;SDS011;4359;49.358;11.256;2023-07-28T11:59:58;1.60;;;0.60;;
8642;SDS011;4359;49.358;11.256;2023-07-28T12:02:29;1.52;;;0.77;;
8642;SDS011;4359;49.358;11.256;2023-07-28T12:04:56;2.35;;;0.70;;
8642;SDS011;4359;49.358;11.256;2023-07-28T12:07:30;3.17;;;0.73;;
8642;SDS011;4359;49.358;11.256;2023-07-28T12:09:56;1.70;;;0.80;;
8642;SDS011;4359;49.358;11.256;2023-07-28T12:12:27;3.95;;;0.80;;
8642;SDS011;4359;49.358;11.256;2023-07-28T12:14:57;1.75;;;0.80;;
8642;SDS011;4359;49.358;11.256;2023-07-28T12:17:30;1.63;;;0.60;;
8642;SDS011;4359;49.358;11.256;2023-07-28T12:22:39;1.77;;;0.80;;
8642;SDS011;4359;49.358;11.256;2023-07-28T12:25:05;3.15;;;0.75;;
8642;SDS011;4359;49.358;11.256;2023-07-28T12:27:31;3.17;;;0.60;;
8642;SDS011;4359;49.358;11.256;2023-07-28T12:29:57;17.75;;;2.15;;
8642;SDS011;4359;49.358;11.256;2023-07-28T12:32:23;1.40;;;0.52;;
8642;SDS011;4359;49.358;11.256;2023-07-28T12:34:49;2.03;;;1.02;;
8642;SDS011;4359;49.358;11.256;2023-07-28T12:37:15;3.00;;;0.93;;
8642;SDS011;4359;49.358;11.256;2023-07-28T12:39:42;1.42;;;0.80;;
8642;SDS011;4359;49.358;11.256;2023-07-28T12:42:09;3.13;;;0.90;;
8642;SDS011;4359;49.358;11.256;2023-07-28T12:44:35;1.50;;;0.77;;
8642;SDS011;4359;49.358;11.256;2023-07-28T12:47:05;1.60;;;0.90;;
8642;SDS011;4359;49.358;11.256;2023-07-28T12:49:31;1.40;;;0.73;;
8642;SDS011;4359;49.358;11.256;2023-07-28T12:51:58;3.03;;;1.15;;
8642;SDS011;4359;49.358;11.256;2023-07-28T12:54:24;1.50;;;0.80;;
8642;SDS011;4359;49.358;11.256;2023-07-28T12:56:50;1.52;;;0.80;;
8642;SDS011;4359;49.358;11.256;2023-07-28T12:59:17;2.88;;;0.90;;
8642;SDS011;4359;49.358;11.256;2023-07-28T13:01:42;1.30;;;0.70;;
8642;SDS011;4359;49.358;11.256;2023-07-28T13:04:08;1.60;;;0.80;;
8642;SDS011;4359;49.358;11.256;2023-07-28T13:06:34;1.52;;;0.70;;
8642;SDS011;4359;49.358;11.256;2023-07-28T13:08:59;1.75;;;0.80;;
8642;SDS011;4359;49.358;11.256;2023-07-28T13:11:25;2.30;;;1.00;;
8642;SDS011;4359;49.358;11.256;2023-07-28T13:13:51;2.05;;;0.80;;
8642;SDS011;4359;49.358;11.256;2023-07-28T13:16:16;4.07;;;0.95;;
8642;SDS011;4359;49.358;11.256;2023-07-28T13:18:42;2.40;;;1.20;;
8642;SDS011;4359;49.358;11.256;2023-07-28T13:21:08;5.38;;;0.95;;
8642;SDS011;4359;49.358;11.256;2023-07-28T13:23:38;1.92;;;0.80;;
8642;SDS011;4359;49.358;11.256;2023-07-28T13:26:04;1.50;;;0.88;;
8642;SDS011;4359;49.358;11.256;2023-07-28T13:28:30;2.25;;;0.80;;
8642;SDS011;4359;49.358;11.256;2023-07-28T13:30:56;3.47;;;1.00;;
8642;SDS011;4359;49.358;11.256;2023-07-28T13:33:22;4.82;;;0.95;;
8642;SDS011;4359;49.358;11.256;2023-07-28T13:35:47;1.58;;;0.90;;
8642;SDS011;4359;49.358;11.256;2023-07-28T13:38:13;1.80;;;0.93;;
8642;SDS011;4359;49.358;11.256;2023-07-28T13:40:39;6.28;;;1.17;;
8642;SDS011;4359;49.358;11.256;2023-07-28T13:43:05;1.40;;;0.80;;
8642;SDS011;4359;49.358;11.256;2023-07-28T13:45:30;1.58;;;0.80;;
8642;SDS011;4359;49.358;11.256;2023-07-28T13:47:56;1.73;;;0.90;;
8642;SDS011;4359;49.358;11.256;2023-07-28T13:50:22;2.85;;;1.10;;
8642;SDS011;4359;49.358;11.256;2023-07-28T13:52:48;1.85;;;0.80;;
8642;SDS011;4359;49.358;11.256;2023-07-28T13:55:14;2.58;;;0.93;;
8642;SDS011;4359;49.358;11.256;2023-07-28T13:57:39;1.75;;;0.90;;
8642;SDS011;4359;49.358;11.256;2023-07-28T14:00:05;1.70;;;0.82;;
8642;SDS011;4359;49.358;11.256;2023-07-28T14:02:35;2.53;;;0.85;;
8642;SDS011;4359;49.358;11.256;2023-07-28T14:05:01;1.40;;;0.80;;
8642;SDS011;4359;49.358;11.256;2023-07-28T14:07:27;3.67;;;0.90;;
8642;SDS011;4359;49.358;11.256;2023-07-28T14:09:53;1.58;;;0.82;;
8642;SDS011;4359;49.358;11.256;2023-07-28T14:12:18;1.85;;;0.80;;
8642;SDS011;4359;49.358;11.256;2023-07-28T14:14:44;1.48;;;0.80;;
8642;SDS011;4359;49.358;11.256;2023-07-28T14:17:10;2.85;;;0.80;;
8642;SDS011;4359;49.358;11.256;2023-07-28T14:19:39;1.70;;;0.82;;
8642;SDS011;4359;49.358;11.256;2023-07-28T14:22:05;1.60;;;0.88;;
8642;SDS011;4359;49.358;11.256;2023-07-28T14:24:31;1.45;;;0.77;;
8642;SDS011;4359;49.358;11.256;2023-07-28T14:26:56;2.25;;;0.75;;
8642;SDS011;4359;49.358;11.256;2023-07-28T14:29:22;2.85;;;0.77;;
8642;SDS011;4359;49.358;11.256;2023-07-28T14:31:48;2.00;;;0.80;;
8642;SDS011;4359;49.358;11.256;2023-07-28T14:34:14;1.73;;;0.77;;
8642;SDS011;4359;49.358;11.256;2023-07-28T14:36:40;2.30;;;0.93;;
8642;SDS011;4359;49.358;11.256;2023-07-28T14:39:05;6.13;;;0.90;;
8642;SDS011;4359;49.358;11.256;2023-07-28T14:41:31;1.48;;;0.88;;
8642;SDS011;4359;49.358;11.256;2023-07-28T14:43:57;1.70;;;0.98;;
8642;SDS011;4359;49.358;11.256;2023-07-28T14:46:23;4.05;;;1.10;;
8642;SDS011;4359;49.358;11.256;2023-07-28T14:48:50;1.50;;;0.80;;
8642;SDS011;4359;49.358;11.256;2023-07-28T14:51:17;3.20;;;0.80;;
8642;SDS011;4359;49.358;11.256;2023-07-28T14:53:42;1.77;;;0.98;;
8642;SDS011;4359;49.358;11.256;2023-07-28T14:56:10;1.58;;;0.85;;
8642;SDS011;4359;49.358;11.256;2023-07-28T14:58:36;1.80;;;1.10;;
8642;SDS011;4359;49.358;11.256;2023-07-28T15:01:02;4.70;;;1.10;;
8642;SDS011;4359;49.358;11.256;2023-07-28T15:03:30;2.15;;;1.10;;
8642;SDS011;4359;49.358;11.256;2023-07-28T15:05:56;1.98;;;0.90;;
8642;SDS011;4359;49.358;11.256;2023-07-28T15:08:22;5.03;;;1.23;;
8642;SDS011;4359;49.358;11.256;2023-07-28T15:10:48;2.00;;;0.90;;
8642;SDS011;4359;49.358;11.256;2023-07-28T15:13:13;1.65;;;0.93;;
8642;SDS011;4359;49.358;11.256;2023-07-28T15:15:39;1.88;;;0.93;;
8642;SDS011;4359;49.358;11.256;2023-07-28T15:18:05;1.92;;;1.10;;